Terminal Aerodrome Forecast
Issued by NWS Cleveland, OH

Home | Current Version | Previous Version | Graphics & Text | Print | Product List | Glossary On
Versions: 1 2 3 4 5 6 7 8 9 10 11 12 13 14 15 16
000
FTUS41 KCLE 071134
TAFTOL
TAF
KTOL 071134Z 0712/0812 20010KT P6SM SCT040 OVC250
     FM071400 22012KT P6SM VCSH SCT020 BKN040 OVC080
      TEMPO 0714/0716 5SM -SHRA BR SCT015 BKN020 OVC040
     FM071600 23010G20KT 5SM -SHRA BR VCTS BKN020 OVC040CB
     FM072000 31010KT 3SM -SHRA BR OVC007
     FM072300 36008KT P6SM VCSH SCT007 BKN010 OVC030
     FM080500 03005KT 6SM BR OVC020=

USA.gov is the U.S. government's official web portal to all federal, state and local government web resources and services.